Share

Ocracoke, NC (27960)

RAWS CEDAR ISLAND NC US (MTS788) Elev 2 ft | 34.96 °N, 76.28 °W | Change Station

Current weather conditions updated 34 minutes ago

Rain
Rain Mist
56 °F
Feels Like 56 °F
N
9
Wind Variable Wind from NE
Gusts 28.0 mph
Sunrise 6:25 AM
Sunset 7:40 PM
Moon Waning Gibbous

Today is forecast to be nearly the same temperature as yesterday. Mainly cloudy with rain, windy.

Pressure 30.04 in
Visibility 1.8 miles
Clouds Overcast 500 ft
Dew Point 55 °F
Humidity 96%
Rainfall 2.08 in
Snow Depth Not available.
UV 0 out of 16
Pollen 9.90 out of 12
Air Quality Not available.
Flu Activity Local Activity
METAR KHSE 201151Z AUTO 03011G21KT 1 3/4SM RA BR OVC005 12/12 A3004 RMK AO2 SLP173 P0003 60012 70128 T01220122 10122 20111 53001 TSNO

More Conditions Fewer Conditions

Pressure 30.04 in
Visibility 1.8 miles
Clouds Overcast 500 ft
Dew Point 55 °F
Humidity 96%
Rainfall 2.08 in
Snow Depth Not available.
UV 0 out of 16
Pollen 9.90 out of 12
Air Quality Not available.
Flu Activity Local Activity
METAR KHSE 201151Z AUTO 03011G21KT 1 3/4SM RA BR OVC005 12/12 A3004 RMK AO2 SLP173 P0003 60012 70128 T01220122 10122 20111 53001 TSNO

More Conditions Fewer Conditions

10-Day Weather Forecast

Almanac

Astronomy

Apr. 20, 2014 Rise Set
Actual Time 6:25 AM EDT 7:40 PM EDT
Civil Twilight 5:59 AM EDT 8:07 PM EDT
Nautical Twilight 5:27 AM EDT 8:38 PM EDT
Astronomical Twilight 4:55 AM EDT 9:11 PM EDT
Moon 12:13 AM EDT 10:48 AM EDT
Length of Visible Light 14h 07m
Length of Day
13h 15m
Tomorrow will be 2m 2s longer.
Waning Gibbous, 70% of the Moon is Illuminated
Today
Waning Gibbous
Apr 22
Last Quarter
Apr 29
New
May 6
First Quarter
May 14
Full

Today's Extremes

State Highs State Lows

Community

  • Easter Greetings
    Easter Greetings
  • Sunny day at the coast-Cape Arago Lighthouse
    Sunny day at the coast-Cape Arago Lighthouse
  • Cherry Blossoms
    Cherry Blossoms
  • White-Crowned Sparrow
    White-Crowned Sparrow
  • New Day
    New Day

WunderPhotos

Upload Photos

1,703,167 photos uploaded!

WunderBlogs® & News

Nearby

Snow Depth

Station Depth Elevation
No new snow has been reported.

Coastal Water Temperatures

Place Temperature
Beaufort, NC 57.0 °F
Hatteras, NC 55.9 °F
Oregon Inlet Marina, NC 51.1 °F
Duck Pier, NC 48.9 °F
Johnny Mercer Pier, Wrightsville Beach, NC 59.0 °F

Earthquake Activity

City Distance Mag. Time & Date
No recent earthquake activity has been reported nearby.
Minimum magnitude displayed is 2.5.

Nearby Weather Stations

Station Location Temp. Dew Point Humidity Wind Precip. Elev Updated Type
RAWS CEDAR ISLAND NC, Cedar Island, NC 56 °F 55 °F 96% NE  at  9 mph 0.03 in / hr 2 ft 7:25 AM EDT MADIS

Show More Stations Show Fewer Stations

What do you think?

We're not finished. Please let us know what you like, what you don't like, and what you are still missing.